sensor_id;sensor_type;location;lat;lon;timestamp;temperature;humidity
78694;SHT31;68029;51.978;5.646;2023-09-19T00:00:46;17.4;73.2
78694;SHT31;68029;51.978;5.646;2023-09-19T00:03:16;17.4;72.1
78694;SHT31;68029;51.978;5.646;2023-09-19T00:05:44;17.4;72.3
78694;SHT31;68029;51.978;5.646;2023-09-19T00:08:14;17.4;72.0
78694;SHT31;68029;51.978;5.646;2023-09-19T00:10:43;17.4;72.8
78694;SHT31;68029;51.978;5.646;2023-09-19T00:13:12;17.4;72.5
78694;SHT31;68029;51.978;5.646;2023-09-19T00:15:42;17.4;72.5
78694;SHT31;68029;51.978;5.646;2023-09-19T00:18:15;17.4;72.4
78694;SHT31;68029;51.978;5.646;2023-09-19T00:20:45;17.4;72.4
78694;SHT31;68029;51.978;5.646;2023-09-19T00:23:17;17.4;72.2
78694;SHT31;68029;51.978;5.646;2023-09-19T00:25:46;17.4;72.3
78694;SHT31;68029;51.978;5.646;2023-09-19T00:28:16;17.4;72.7
78694;SHT31;68029;51.978;5.646;2023-09-19T00:30:46;17.4;72.5
78694;SHT31;68029;51.978;5.646;2023-09-19T00:33:16;17.4;72.6
78694;SHT31;68029;51.978;5.646;2023-09-19T00:35:49;17.4;72.6
78694;SHT31;68029;51.978;5.646;2023-09-19T00:38:19;17.4;72.9
78694;SHT31;68029;51.978;5.646;2023-09-19T00:40:50;17.4;73.1
78694;SHT31;68029;51.978;5.646;2023-09-19T00:43:20;17.3;73.3
78694;SHT31;68029;51.978;5.646;2023-09-19T00:45:53;17.4;73.6
78694;SHT31;68029;51.978;5.646;2023-09-19T00:48:23;17.4;73.8
78694;SHT31;68029;51.978;5.646;2023-09-19T00:50:54;17.4;74.3
78694;SHT31;68029;51.978;5.646;2023-09-19T00:53:24;17.4;73.8
78694;SHT31;68029;51.978;5.646;2023-09-19T00:55:53;17.4;73.8
78694;SHT31;68029;51.978;5.646;2023-09-19T00:58:23;17.4;73.8
78694;SHT31;68029;51.978;5.646;2023-09-19T01:00:52;17.4;73.8
78694;SHT31;68029;51.978;5.646;2023-09-19T01:03:23;17.5;73.8
78694;SHT31;68029;51.978;5.646;2023-09-19T01:05:51;17.5;74.0
78694;SHT31;68029;51.978;5.646;2023-09-19T01:08:20;17.5;73.9
78694;SHT31;68029;51.978;5.646;2023-09-19T01:10:54;17.5;73.8
78694;SHT31;68029;51.978;5.646;2023-09-19T01:13:38;17.4;73.6
78694;SHT31;68029;51.978;5.646;2023-09-19T01:16:17;17.4;73.6
78694;SHT31;68029;51.978;5.646;2023-09-19T01:18:55;17.4;73.5
78694;SHT31;68029;51.978;5.646;2023-09-19T01:21:29;17.4;74.1
78694;SHT31;68029;51.978;5.646;2023-09-19T01:24:15;17.4;74.0
78694;SHT31;68029;51.978;5.646;2023-09-19T01:27:05;17.4;73.7
78694;SHT31;68029;51.978;5.646;2023-09-19T01:29:37;17.4;73.4
78694;SHT31;68029;51.978;5.646;2023-09-19T01:32:09;17.3;72.6
78694;SHT31;68029;51.978;5.646;2023-09-19T01:34:48;17.3;72.4
78694;SHT31;68029;51.978;5.646;2023-09-19T01:37:21;17.3;71.5
78694;SHT31;68029;51.978;5.646;2023-09-19T01:39:57;17.3;71.0
78694;SHT31;68029;51.978;5.646;2023-09-19T01:42:39;17.3;71.4
78694;SHT31;68029;51.978;5.646;2023-09-19T01:45:12;17.3;70.2
78694;SHT31;68029;51.978;5.646;2023-09-19T01:47:49;17.3;70.3
78694;SHT31;68029;51.978;5.646;2023-09-19T01:50:29;17.3;69.5
78694;SHT31;68029;51.978;5.646;2023-09-19T01:53:06;17.3;69.3
78694;SHT31;68029;51.978;5.646;2023-09-19T01:55:43;17.2;69.5
78694;SHT31;68029;51.978;5.646;2023-09-19T01:58:18;17.2;69.1
78694;SHT31;68029;51.978;5.646;2023-09-19T02:00:49;17.2;69.4
78694;SHT31;68029;51.978;5.646;2023-09-19T02:03:23;17.1;69.3
78694;SHT31;68029;51.978;5.646;2023-09-19T02:05:53;17.1;69.7
78694;SHT31;68029;51.978;5.646;2023-09-19T02:08:23;17.1;69.8
78694;SHT31;68029;51.978;5.646;2023-09-19T02:10:52;17.0;69.7
78694;SHT31;68029;51.978;5.646;2023-09-19T02:13:23;17.0;69.1
78694;SHT31;68029;51.978;5.646;2023-09-19T02:15:53;17.0;69.0
78694;SHT31;68029;51.978;5.646;2023-09-19T02:18:22;17.0;68.9
78694;SHT31;68029;51.978;5.646;2023-09-19T02:20:54;16.9;69.2
78694;SHT31;68029;51.978;5.646;2023-09-19T02:23:25;16.9;69.3
78694;SHT31;68029;51.978;5.646;2023-09-19T02:25:55;16.8;68.6
78694;SHT31;68029;51.978;5.646;2023-09-19T02:28:25;16.8;68.5
78694;SHT31;68029;51.978;5.646;2023-09-19T02:30:58;16.8;68.6
78694;SHT31;68029;51.978;5.646;2023-09-19T02:33:26;16.7;68.2
78694;SHT31;68029;51.978;5.646;2023-09-19T02:35:59;16.7;68.1
78694;SHT31;68029;51.978;5.646;2023-09-19T02:38:30;16.7;67.8
78694;SHT31;68029;51.978;5.646;2023-09-19T02:40:58;16.6;67.8
78694;SHT31;68029;51.978;5.646;2023-09-19T02:43:27;16.6;67.7
78694;SHT31;68029;51.978;5.646;2023-09-19T02:45:56;16.5;69.0
78694;SHT31;68029;51.978;5.646;2023-09-19T02:48:26;16.5;67.5
78694;SHT31;68029;51.978;5.646;2023-09-19T02:50:58;16.5;67.3
78694;SHT31;68029;51.978;5.646;2023-09-19T02:53:26;16.5;67.3
78694;SHT31;68029;51.978;5.646;2023-09-19T02:55:57;16.4;67.0
78694;SHT31;68029;51.978;5.646;2023-09-19T02:58:27;16.4;66.7
78694;SHT31;68029;51.978;5.646;2023-09-19T03:00:56;16.4;67.2
78694;SHT31;68029;51.978;5.646;2023-09-19T03:03:25;16.4;66.6
78694;SHT31;68029;51.978;5.646;2023-09-19T03:05:55;16.3;66.9
78694;SHT31;68029;51.978;5.646;2023-09-19T03:08:25;16.3;67.0
78694;SHT31;68029;51.978;5.646;2023-09-19T03:10:53;16.3;66.2
78694;SHT31;68029;51.978;5.646;2023-09-19T03:13:22;16.3;66.7
78694;SHT31;68029;51.978;5.646;2023-09-19T03:15:50;16.2;66.1
78694;SHT31;68029;51.978;5.646;2023-09-19T03:18:19;16.2;66.1
78694;SHT31;68029;51.978;5.646;2023-09-19T03:20:54;16.2;66.0
78694;SHT31;68029;51.978;5.646;2023-09-19T03:23:23;16.1;66.0
78694;SHT31;68029;51.978;5.646;2023-09-19T03:25:52;16.1;65.8
78694;SHT31;68029;51.978;5.646;2023-09-19T03:28:21;16.1;65.9
78694;SHT31;68029;51.978;5.646;2023-09-19T03:30:59;16.0;65.9
78694;SHT31;68029;51.978;5.646;2023-09-19T03:33:28;16.0;66.2
78694;SHT31;68029;51.978;5.646;2023-09-19T03:35:58;16.0;65.5
78694;SHT31;68029;51.978;5.646;2023-09-19T03:38:27;16.0;65.7
78694;SHT31;68029;51.978;5.646;2023-09-19T03:40:56;16.0;65.6
78694;SHT31;68029;51.978;5.646;2023-09-19T03:43:24;16.0;65.6
78694;SHT31;68029;51.978;5.646;2023-09-19T03:45:53;16.0;65.6
78694;SHT31;68029;51.978;5.646;2023-09-19T03:48:22;16.0;65.4
78694;SHT31;68029;51.978;5.646;2023-09-19T03:50:51;16.0;65.7
78694;SHT31;68029;51.978;5.646;2023-09-19T03:53:23;15.9;65.3
78694;SHT31;68029;51.978;5.646;2023-09-19T03:55:51;15.9;65.0
78694;SHT31;68029;51.978;5.646;2023-09-19T03:58:21;15.9;65.3
78694;SHT31;68029;51.978;5.646;2023-09-19T04:00:49;15.9;64.8
78694;SHT31;68029;51.978;5.646;2023-09-19T04:03:18;15.9;65.3
78694;SHT31;68029;51.978;5.646;2023-09-19T04:05:47;15.9;64.9
78694;SHT31;68029;51.978;5.646;2023-09-19T04:08:16;15.8;64.7
78694;SHT31;68029;51.978;5.646;2023-09-19T04:10:46;15.8;64.4
78694;SHT31;68029;51.978;5.646;2023-09-19T04:13:15;15.8;64.9
78694;SHT31;68029;51.978;5.646;2023-09-19T04:15:45;15.8;64.8
78694;SHT31;68029;51.978;5.646;2023-09-19T04:18:14;15.8;64.8
78694;SHT31;68029;51.978;5.646;2023-09-19T04:20:47;15.8;64.7
78694;SHT31;68029;51.978;5.646;2023-09-19T04:23:16;15.8;64.7
78694;SHT31;68029;51.978;5.646;2023-09-19T04:25:46;15.8;65.7
78694;SHT31;68029;51.978;5.646;2023-09-19T04:28:15;15.8;64.7
78694;SHT31;68029;51.978;5.646;2023-09-19T04:30:44;15.8;64.9
78694;SHT31;68029;51.978;5.646;2023-09-19T04:33:12;15.8;64.7
78694;SHT31;68029;51.978;5.646;2023-09-19T04:35:42;15.8;65.2
78694;SHT31;68029;51.978;5.646;2023-09-19T04:38:10;15.8;64.8
78694;SHT31;68029;51.978;5.646;2023-09-19T04:40:41;15.8;65.0
78694;SHT31;68029;51.978;5.646;2023-09-19T04:43:10;15.8;65.5
78694;SHT31;68029;51.978;5.646;2023-09-19T04:45:39;15.8;65.2
78694;SHT31;68029;51.978;5.646;2023-09-19T04:48:08;15.8;65.4
78694;SHT31;68029;51.978;5.646;2023-09-19T04:50:37;15.7;65.3
78694;SHT31;68029;51.978;5.646;2023-09-19T04:53:06;15.7;65.5
78694;SHT31;68029;51.978;5.646;2023-09-19T04:55:35;15.7;65.9
78694;SHT31;68029;51.978;5.646;2023-09-19T04:58:03;15.7;65.6
78694;SHT31;68029;51.978;5.646;2023-09-19T05:00:32;15.7;66.1
78694;SHT31;68029;51.978;5.646;2023-09-19T05:03:03;15.7;66.0
78694;SHT31;68029;51.978;5.646;2023-09-19T05:05:35;15.7;66.3
78694;SHT31;68029;51.978;5.646;2023-09-19T05:08:06;15.7;66.2
78694;SHT31;68029;51.978;5.646;2023-09-19T05:10:36;15.6;66.6
78694;SHT31;68029;51.978;5.646;2023-09-19T05:13:06;15.6;66.6
78694;SHT31;68029;51.978;5.646;2023-09-19T05:15:35;15.6;67.0
78694;SHT31;68029;51.978;5.646;2023-09-19T05:18:04;15.6;66.8
78694;SHT31;68029;51.978;5.646;2023-09-19T05:20:33;15.6;67.0
78694;SHT31;68029;51.978;5.646;2023-09-19T05:23:05;15.6;67.3
78694;SHT31;68029;51.978;5.646;2023-09-19T05:25:39;15.6;67.2
78694;SHT31;68029;51.978;5.646;2023-09-19T05:28:10;15.6;67.3
78694;SHT31;68029;51.978;5.646;2023-09-19T05:30:41;15.6;67.4
78694;SHT31;68029;51.978;5.646;2023-09-19T05:33:12;15.6;67.3
78694;SHT31;68029;51.978;5.646;2023-09-19T05:35:41;15.6;67.8
78694;SHT31;68029;51.978;5.646;2023-09-19T05:38:12;15.6;67.7
78694;SHT31;68029;51.978;5.646;2023-09-19T05:40:45;15.7;67.9
78694;SHT31;68029;51.978;5.646;2023-09-19T05:43:14;15.7;67.6
78694;SHT31;68029;51.978;5.646;2023-09-19T05:45:42;15.7;68.0
78694;SHT31;68029;51.978;5.646;2023-09-19T05:48:13;15.7;68.2
78694;SHT31;68029;51.978;5.646;2023-09-19T05:50:44;15.8;67.9
78694;SHT31;68029;51.978;5.646;2023-09-19T05:53:15;15.8;67.8
78694;SHT31;68029;51.978;5.646;2023-09-19T05:55:47;15.8;68.6
78694;SHT31;68029;51.978;5.646;2023-09-19T05:58:16;15.8;68.0
78694;SHT31;68029;51.978;5.646;2023-09-19T06:00:44;15.8;68.3
78694;SHT31;68029;51.978;5.646;2023-09-19T06:03:16;15.8;68.4
78694;SHT31;68029;51.978;5.646;2023-09-19T06:05:45;15.8;68.3
78694;SHT31;68029;51.978;5.646;2023-09-19T06:08:15;15.8;68.4
78694;SHT31;68029;51.978;5.646;2023-09-19T06:10:44;15.8;68.8
78694;SHT31;68029;51.978;5.646;2023-09-19T06:13:15;15.9;69.1
78694;SHT31;68029;51.978;5.646;2023-09-19T06:15:45;15.9;69.1
78694;SHT31;68029;51.978;5.646;2023-09-19T06:18:14;15.9;69.2
78694;SHT31;68029;51.978;5.646;2023-09-19T06:20:46;15.9;69.5
78694;SHT31;68029;51.978;5.646;2023-09-19T06:23:18;15.9;69.4
78694;SHT31;68029;51.978;5.646;2023-09-19T06:25:49;16.0;69.1
78694;SHT31;68029;51.978;5.646;2023-09-19T06:28:17;16.0;69.5
78694;SHT31;68029;51.978;5.646;2023-09-19T06:30:52;16.0;69.7
78694;SHT31;68029;51.978;5.646;2023-09-19T06:33:21;16.1;69.5
78694;SHT31;68029;51.978;5.646;2023-09-19T06:35:50;16.1;69.8
78694;SHT31;68029;51.978;5.646;2023-09-19T06:38:23;16.2;69.7
78694;SHT31;68029;51.978;5.646;2023-09-19T06:40:53;16.2;69.7
78694;SHT31;68029;51.978;5.646;2023-09-19T06:43:23;16.2;69.8
78694;SHT31;68029;51.978;5.646;2023-09-19T06:45:53;16.3;69.6
78694;SHT31;68029;51.978;5.646;2023-09-19T06:48:23;16.3;69.9
78694;SHT31;68029;51.978;5.646;2023-09-19T06:50:53;16.3;69.6
78694;SHT31;68029;51.978;5.646;2023-09-19T06:53:22;16.4;69.6
78694;SHT31;68029;51.978;5.646;2023-09-19T06:55:52;16.4;69.9
78694;SHT31;68029;51.978;5.646;2023-09-19T06:58:21;16.5;70.1
78694;SHT31;68029;51.978;5.646;2023-09-19T07:00:50;16.5;69.3
78694;SHT31;68029;51.978;5.646;2023-09-19T07:03:18;16.6;69.5
78694;SHT31;68029;51.978;5.646;2023-09-19T07:05:49;16.7;69.4
78694;SHT31;68029;51.978;5.646;2023-09-19T07:08:19;16.7;69.3
78694;SHT31;68029;51.978;5.646;2023-09-19T07:10:47;16.8;68.8
78694;SHT31;68029;51.978;5.646;2023-09-19T07:13:19;16.9;68.9
78694;SHT31;68029;51.978;5.646;2023-09-19T07:15:47;16.9;68.4
78694;SHT31;68029;51.978;5.646;2023-09-19T07:18:17;17.0;68.4
78694;SHT31;68029;51.978;5.646;2023-09-19T07:20:47;17.0;68.2
78694;SHT31;68029;51.978;5.646;2023-09-19T07:23:17;17.1;67.8
78694;SHT31;68029;51.978;5.646;2023-09-19T07:25:49;17.1;67.8
78694;SHT31;68029;51.978;5.646;2023-09-19T07:28:18;17.2;67.7
78694;SHT31;68029;51.978;5.646;2023-09-19T07:30:47;17.3;67.8
78694;SHT31;68029;51.978;5.646;2023-09-19T07:33:16;17.3;67.5
78694;SHT31;68029;51.978;5.646;2023-09-19T07:35:47;17.4;67.6
78694;SHT31;68029;51.978;5.646;2023-09-19T07:38:16;17.5;67.3
78694;SHT31;68029;51.978;5.646;2023-09-19T07:40:45;17.6;67.1
78694;SHT31;68029;51.978;5.646;2023-09-19T07:43:13;17.7;66.7
78694;SHT31;68029;51.978;5.646;2023-09-19T07:45:42;17.8;67.0
78694;SHT31;68029;51.978;5.646;2023-09-19T07:48:10;17.9;66.5
78694;SHT31;68029;51.978;5.646;2023-09-19T07:50:41;18.0;65.5
78694;SHT31;68029;51.978;5.646;2023-09-19T07:53:12;18.1;66.4
78694;SHT31;68029;51.978;5.646;2023-09-19T07:55:43;18.2;65.9
78694;SHT31;68029;51.978;5.646;2023-09-19T07:58:14;18.3;65.3
78694;SHT31;68029;51.978;5.646;2023-09-19T08:00:43;18.4;65.5
78694;SHT31;68029;51.978;5.646;2023-09-19T08:03:12;18.5;64.2
78694;SHT31;68029;51.978;5.646;2023-09-19T08:05:41;18.6;65.2
78694;SHT31;68029;51.978;5.646;2023-09-19T08:08:10;18.7;63.8
78694;SHT31;68029;51.978;5.646;2023-09-19T08:10:41;18.8;63.2
78694;SHT31;68029;51.978;5.646;2023-09-19T08:13:15;18.9;63.4
78694;SHT31;68029;51.978;5.646;2023-09-19T08:15:45;19.0;62.2
78694;SHT31;68029;51.978;5.646;2023-09-19T08:18:15;19.1;63.0
78694;SHT31;68029;51.978;5.646;2023-09-19T08:20:51;19.1;63.0
78694;SHT31;68029;51.978;5.646;2023-09-19T08:23:20;19.2;63.2
78694;SHT31;68029;51.978;5.646;2023-09-19T08:25:49;19.3;61.9
78694;SHT31;68029;51.978;5.646;2023-09-19T08:28:20;19.4;63.3
78694;SHT31;68029;51.978;5.646;2023-09-19T08:30:51;19.5;62.7
78694;SHT31;68029;51.978;5.646;2023-09-19T08:33:21;19.6;62.5
78694;SHT31;68029;51.978;5.646;2023-09-19T08:35:49;19.7;61.9
78694;SHT31;68029;51.978;5.646;2023-09-19T08:38:18;19.8;61.3
78694;SHT31;68029;51.978;5.646;2023-09-19T08:40:47;19.9;60.8
78694;SHT31;68029;51.978;5.646;2023-09-19T08:43:18;20.0;60.5
78694;SHT31;68029;51.978;5.646;2023-09-19T08:45:51;20.1;61.2
78694;SHT31;68029;51.978;5.646;2023-09-19T08:48:24;20.2;60.3
78694;SHT31;68029;51.978;5.646;2023-09-19T08:50:58;20.3;59.7
78694;SHT31;68029;51.978;5.646;2023-09-19T08:53:41;20.3;59.9
78694;SHT31;68029;51.978;5.646;2023-09-19T08:56:13;20.3;59.7
78694;SHT31;68029;51.978;5.646;2023-09-19T08:58:46;20.4;60.1
78694;SHT31;68029;51.978;5.646;2023-09-19T09:01:21;20.4;58.9
78694;SHT31;68029;51.978;5.646;2023-09-19T09:03:51;20.5;58.2
78694;SHT31;68029;51.978;5.646;2023-09-19T09:06:22;20.5;58.6
78694;SHT31;68029;51.978;5.646;2023-09-19T09:08:52;20.6;59.7
78694;SHT31;68029;51.978;5.646;2023-09-19T09:11:21;20.7;57.8
78694;SHT31;68029;51.978;5.646;2023-09-19T09:13:51;20.8;57.9
78694;SHT31;68029;51.978;5.646;2023-09-19T09:16:20;20.9;57.7
78694;SHT31;68029;51.978;5.646;2023-09-19T09:18:52;21.0;57.0
78694;SHT31;68029;51.978;5.646;2023-09-19T09:21:22;21.1;56.5
78694;SHT31;68029;51.978;5.646;2023-09-19T09:23:53;21.2;54.6
78694;SHT31;68029;51.978;5.646;2023-09-19T09:26:42;21.2;54.2
78694;SHT31;68029;51.978;5.646;2023-09-19T09:29:11;21.2;54.2
78694;SHT31;68029;51.978;5.646;2023-09-19T09:31:40;21.2;53.8
78694;SHT31;68029;51.978;5.646;2023-09-19T09:34:11;21.2;55.7
78694;SHT31;68029;51.978;5.646;2023-09-19T09:36:40;21.2;54.3
78694;SHT31;68029;51.978;5.646;2023-09-19T09:39:10;21.2;54.0
78694;SHT31;68029;51.978;5.646;2023-09-19T09:41:51;21.2;55.5
78694;SHT31;68029;51.978;5.646;2023-09-19T09:44:20;21.3;55.1
78694;SHT31;68029;51.978;5.646;2023-09-19T09:46:51;21.3;54.4
78694;SHT31;68029;51.978;5.646;2023-09-19T09:49:57;21.5;55.2
78694;SHT31;68029;51.978;5.646;2023-09-19T09:52:48;21.7;55.6
78694;SHT31;68029;51.978;5.646;2023-09-19T09:55:17;21.9;53.7
78694;SHT31;68029;51.978;5.646;2023-09-19T09:57:52;22.1;54.0
78694;SHT31;68029;51.978;5.646;2023-09-19T10:00:25;22.4;52.8
78694;SHT31;68029;51.978;5.646;2023-09-19T10:02:58;22.5;52.9
78694;SHT31;68029;51.978;5.646;2023-09-19T10:05:28;22.7;52.0
78694;SHT31;68029;51.978;5.646;2023-09-19T10:08:12;22.8;51.1
78694;SHT31;68029;51.978;5.646;2023-09-19T10:10:45;22.9;50.7
78694;SHT31;68029;51.978;5.646;2023-09-19T10:13:20;22.9;51.2
78694;SHT31;68029;51.978;5.646;2023-09-19T10:15:52;22.9;50.9
78694;SHT31;68029;51.978;5.646;2023-09-19T10:18:24;23.0;50.8
78694;SHT31;68029;51.978;5.646;2023-09-19T10:20:56;23.0;52.2
78694;SHT31;68029;51.978;5.646;2023-09-19T10:23:26;23.1;51.8
78694;SHT31;68029;51.978;5.646;2023-09-19T10:25:57;23.2;52.6
78694;SHT31;68029;51.978;5.646;2023-09-19T10:28:28;23.3;51.7
78694;SHT31;68029;51.978;5.646;2023-09-19T10:31:00;23.4;50.6
78694;SHT31;68029;51.978;5.646;2023-09-19T10:33:37;23.5;49.5
78694;SHT31;68029;51.978;5.646;2023-09-19T10:36:12;23.5;50.0
78694;SHT31;68029;51.978;5.646;2023-09-19T10:38:43;23.5;49.4
78694;SHT31;68029;51.978;5.646;2023-09-19T10:41:16;23.6;50.3
78694;SHT31;68029;51.978;5.646;2023-09-19T10:43:48;23.6;50.2
78694;SHT31;68029;51.978;5.646;2023-09-19T10:46:19;23.6;48.6
78694;SHT31;68029;51.978;5.646;2023-09-19T10:48:47;23.6;49.5
78694;SHT31;68029;51.978;5.646;2023-09-19T10:51:26;23.6;50.2
78694;SHT31;68029;51.978;5.646;2023-09-19T10:54:02;23.6;49.2
78694;SHT31;68029;51.978;5.646;2023-09-19T10:56:37;23.5;49.2
78694;SHT31;68029;51.978;5.646;2023-09-19T10:59:10;23.5;49.2
78694;SHT31;68029;51.978;5.646;2023-09-19T11:01:47;23.6;50.0
78694;SHT31;68029;51.978;5.646;2023-09-19T11:04:25;23.6;50.4
78694;SHT31;68029;51.978;5.646;2023-09-19T11:07:05;23.7;50.0
78694;SHT31;68029;51.978;5.646;2023-09-19T11:09:47;23.7;49.6
78694;SHT31;68029;51.978;5.646;2023-09-19T11:12:51;23.8;49.0
78694;SHT31;68029;51.978;5.646;2023-09-19T11:20:26;23.9;49.8
78694;SHT31;68029;51.978;5.646;2023-09-19T11:23:24;23.9;48.4
78694;SHT31;68029;51.978;5.646;2023-09-19T11:25:54;23.9;48.7
78694;SHT31;68029;51.978;5.646;2023-09-19T11:28:30;23.9;48.4
78694;SHT31;68029;51.978;5.646;2023-09-19T11:34:17;23.8;48.3
78694;SHT31;68029;51.978;5.646;2023-09-19T11:36:51;23.7;48.8
78694;SHT31;68029;51.978;5.646;2023-09-19T11:39:27;23.6;47.9
78694;SHT31;68029;51.978;5.646;2023-09-19T11:41:58;23.5;49.0
78694;SHT31;68029;51.978;5.646;2023-09-19T11:44:35;23.5;49.8
78694;SHT31;68029;51.978;5.646;2023-09-19T11:47:05;23.5;49.6
78694;SHT31;68029;51.978;5.646;2023-09-19T11:49:42;23.6;50.0
78694;SHT31;68029;51.978;5.646;2023-09-19T11:52:23;23.7;48.5
78694;SHT31;68029;51.978;5.646;2023-09-19T11:54:56;23.8;46.9
78694;SHT31;68029;51.978;5.646;2023-09-19T11:57:27;23.8;47.1
78694;SHT31;68029;51.978;5.646;2023-09-19T11:59:59;23.8;47.3
78694;SHT31;68029;51.978;5.646;2023-09-19T12:02:39;23.8;47.4
78694;SHT31;68029;51.978;5.646;2023-09-19T12:05:12;23.8;48.8
78694;SHT31;68029;51.978;5.646;2023-09-19T12:07:45;23.7;48.6
78694;SHT31;68029;51.978;5.646;2023-09-19T12:10:15;23.7;47.1
78694;SHT31;68029;51.978;5.646;2023-09-19T12:12:49;23.7;47.6
78694;SHT31;68029;51.978;5.646;2023-09-19T12:15:25;23.7;47.1
78694;SHT31;68029;51.978;5.646;2023-09-19T12:17:59;23.8;46.6
78694;SHT31;68029;51.978;5.646;2023-09-19T12:20:44;23.8;47.1
78694;SHT31;68029;51.978;5.646;2023-09-19T12:23:14;23.8;46.2
78694;SHT31;68029;51.978;5.646;2023-09-19T12:25:45;23.7;47.0
78694;SHT31;68029;51.978;5.646;2023-09-19T12:28:15;23.6;46.7
78694;SHT31;68029;51.978;5.646;2023-09-19T12:30:44;23.4;47.3
78694;SHT31;68029;51.978;5.646;2023-09-19T12:33:17;23.3;47.9
78694;SHT31;68029;51.978;5.646;2023-09-19T12:35:51;23.1;47.3
78694;SHT31;68029;51.978;5.646;2023-09-19T12:38:28;22.9;48.4
78694;SHT31;68029;51.978;5.646;2023-09-19T12:40:59;22.8;49.0
78694;SHT31;68029;51.978;5.646;2023-09-19T12:43:29;22.6;50.0
78694;SHT31;68029;51.978;5.646;2023-09-19T12:46:01;22.5;50.9
78694;SHT31;68029;51.978;5.646;2023-09-19T12:48:33;22.5;50.9
78694;SHT31;68029;51.978;5.646;2023-09-19T12:51:06;22.4;50.9
78694;SHT31;68029;51.978;5.646;2023-09-19T12:53:39;22.3;50.7
78694;SHT31;68029;51.978;5.646;2023-09-19T12:56:10;22.2;51.3
78694;SHT31;68029;51.978;5.646;2023-09-19T12:58:55;22.1;52.0
78694;SHT31;68029;51.978;5.646;2023-09-19T13:01:27;22.1;52.7
78694;SHT31;68029;51.978;5.646;2023-09-19T13:04:15;22.0;52.4
78694;SHT31;68029;51.978;5.646;2023-09-19T13:06:48;22.0;52.7
78694;SHT31;68029;51.978;5.646;2023-09-19T13:09:19;21.9;53.4
78694;SHT31;68029;51.978;5.646;2023-09-19T13:11:49;21.9;52.9
78694;SHT31;68029;51.978;5.646;2023-09-19T13:14:22;21.9;53.2
78694;SHT31;68029;51.978;5.646;2023-09-19T13:16:55;21.8;52.8
78694;SHT31;68029;51.978;5.646;2023-09-19T13:19:38;21.8;53.4
78694;SHT31;68029;51.978;5.646;2023-09-19T13:22:38;21.8;53.0
78694;SHT31;68029;51.978;5.646;2023-09-19T13:25:12;21.7;54.1
78694;SHT31;68029;51.978;5.646;2023-09-19T13:27:46;21.7;54.5
78694;SHT31;68029;51.978;5.646;2023-09-19T13:30:19;21.6;54.1
78694;SHT31;68029;51.978;5.646;2023-09-19T13:32:48;21.6;54.7
78694;SHT31;68029;51.978;5.646;2023-09-19T13:35:18;21.6;53.7
78694;SHT31;68029;51.978;5.646;2023-09-19T13:37:47;21.6;54.4
78694;SHT31;68029;51.978;5.646;2023-09-19T13:40:18;21.5;54.3
78694;SHT31;68029;51.978;5.646;2023-09-19T13:42:47;21.5;54.4
78694;SHT31;68029;51.978;5.646;2023-09-19T13:45:17;21.5;54.2
78694;SHT31;68029;51.978;5.646;2023-09-19T13:47:48;21.5;54.8
78694;SHT31;68029;51.978;5.646;2023-09-19T13:50:17;21.5;54.5
78694;SHT31;68029;51.978;5.646;2023-09-19T13:52:50;21.4;54.8
78694;SHT31;68029;51.978;5.646;2023-09-19T13:55:20;21.5;54.8
78694;SHT31;68029;51.978;5.646;2023-09-19T13:57:50;21.5;54.6
78694;SHT31;68029;51.978;5.646;2023-09-19T14:00:21;21.5;54.8
78694;SHT31;68029;51.978;5.646;2023-09-19T14:02:51;21.5;55.0
78694;SHT31;68029;51.978;5.646;2023-09-19T14:05:20;21.6;54.7
78694;SHT31;68029;51.978;5.646;2023-09-19T14:07:50;21.6;54.7
78694;SHT31;68029;51.978;5.646;2023-09-19T14:10:18;21.6;54.9
78694;SHT31;68029;51.978;5.646;2023-09-19T14:12:47;21.7;54.8
78694;SHT31;68029;51.978;5.646;2023-09-19T14:15:16;21.7;54.9
78694;SHT31;68029;51.978;5.646;2023-09-19T14:17:44;21.7;55.6
78694;SHT31;68029;51.978;5.646;2023-09-19T14:20:13;21.8;55.0
78694;SHT31;68029;51.978;5.646;2023-09-19T14:22:42;21.8;53.4
78694;SHT31;68029;51.978;5.646;2023-09-19T14:25:10;21.9;53.8
78694;SHT31;68029;51.978;5.646;2023-09-19T14:27:39;21.9;53.8
78694;SHT31;68029;51.978;5.646;2023-09-19T14:30:09;21.9;53.8
78694;SHT31;68029;51.978;5.646;2023-09-19T14:32:38;21.9;53.8
78694;SHT31;68029;51.978;5.646;2023-09-19T14:35:08;21.9;53.8
78694;SHT31;68029;51.978;5.646;2023-09-19T14:37:41;21.9;53.5
78694;SHT31;68029;51.978;5.646;2023-09-19T14:40:12;21.8;53.3
78694;SHT31;68029;51.978;5.646;2023-09-19T14:42:43;21.8;53.6
78694;SHT31;68029;51.978;5.646;2023-09-19T14:45:12;21.8;54.2
78694;SHT31;68029;51.978;5.646;2023-09-19T14:47:46;21.8;54.5
78694;SHT31;68029;51.978;5.646;2023-09-19T14:50:16;21.8;54.3
78694;SHT31;68029;51.978;5.646;2023-09-19T14:52:45;21.7;54.0
78694;SHT31;68029;51.978;5.646;2023-09-19T14:55:13;21.7;54.5
78694;SHT31;68029;51.978;5.646;2023-09-19T14:57:42;21.7;54.3
78694;SHT31;68029;51.978;5.646;2023-09-19T15:00:13;21.7;54.7
78694;SHT31;68029;51.978;5.646;2023-09-19T15:02:43;21.6;55.2
78694;SHT31;68029;51.978;5.646;2023-09-19T15:05:15;21.6;54.9
78694;SHT31;68029;51.978;5.646;2023-09-19T15:07:45;21.6;54.7
78694;SHT31;68029;51.978;5.646;2023-09-19T15:10:13;21.6;55.2
78694;SHT31;68029;51.978;5.646;2023-09-19T15:12:43;21.5;55.5
78694;SHT31;68029;51.978;5.646;2023-09-19T15:15:14;21.5;55.0
78694;SHT31;68029;51.978;5.646;2023-09-19T15:17:44;21.5;55.4
78694;SHT31;68029;51.978;5.646;2023-09-19T15:20:16;21.5;55.2
78694;SHT31;68029;51.978;5.646;2023-09-19T15:22:44;21.4;55.3
78694;SHT31;68029;51.978;5.646;2023-09-19T15:25:14;21.4;55.6
78694;SHT31;68029;51.978;5.646;2023-09-19T15:27:42;21.4;55.4
78694;SHT31;68029;51.978;5.646;2023-09-19T15:30:15;21.4;55.7
78694;SHT31;68029;51.978;5.646;2023-09-19T15:32:43;21.3;55.7
78694;SHT31;68029;51.978;5.646;2023-09-19T15:35:12;21.3;55.5
78694;SHT31;68029;51.978;5.646;2023-09-19T15:37:43;21.3;55.8
78694;SHT31;68029;51.978;5.646;2023-09-19T15:40:12;21.3;55.7
78694;SHT31;68029;51.978;5.646;2023-09-19T15:42:43;21.2;56.2
78694;SHT31;68029;51.978;5.646;2023-09-19T15:45:12;21.2;56.7
78694;SHT31;68029;51.978;5.646;2023-09-19T15:47:41;21.2;56.0
78694;SHT31;68029;51.978;5.646;2023-09-19T15:50:11;21.2;56.2
78694;SHT31;68029;51.978;5.646;2023-09-19T15:52:41;21.2;55.5
78694;SHT31;68029;51.978;5.646;2023-09-19T15:55:11;21.2;56.0
78694;SHT31;68029;51.978;5.646;2023-09-19T15:57:41;21.2;56.1
78694;SHT31;68029;51.978;5.646;2023-09-19T16:00:13;21.1;56.1
78694;SHT31;68029;51.978;5.646;2023-09-19T16:02:45;21.1;56.0
78694;SHT31;68029;51.978;5.646;2023-09-19T16:05:16;21.1;56.1
78694;SHT31;68029;51.978;5.646;2023-09-19T16:07:45;21.1;56.5
78694;SHT31;68029;51.978;5.646;2023-09-19T16:10:13;21.1;57.4
78694;SHT31;68029;51.978;5.646;2023-09-19T16:12:42;21.0;57.4
78694;SHT31;68029;51.978;5.646;2023-09-19T16:15:11;21.0;57.8
78694;SHT31;68029;51.978;5.646;2023-09-19T16:17:41;21.0;57.9
78694;SHT31;68029;51.978;5.646;2023-09-19T16:20:10;21.0;57.9
78694;SHT31;68029;51.978;5.646;2023-09-19T16:22:39;21.0;57.8
78694;SHT31;68029;51.978;5.646;2023-09-19T16:25:09;21.0;58.2
78694;SHT31;68029;51.978;5.646;2023-09-19T16:27:42;21.0;58.5
78694;SHT31;68029;51.978;5.646;2023-09-19T16:30:11;20.9;57.7
78694;SHT31;68029;51.978;5.646;2023-09-19T16:32:40;20.9;57.7
78694;SHT31;68029;51.978;5.646;2023-09-19T16:35:09;20.9;57.7
78694;SHT31;68029;51.978;5.646;2023-09-19T16:37:39;20.9;57.9